Time;durP1;ratioP1;P1;durP2;ratioP2;P2;SDS_P1;SDS_P2;PMS_P1;PMS_P2;Temp;Humidity;BMP_temperature;BMP_pressure;BME280_temperature;BME280_humidity;BME280_pressure;Samples;Min_cycle;Max_cycle;Signal;HPM_P1;HPM_P2
2023/10/14 00:02:23;;;;;;;16.98;6.62;;;;;;;19.62;55.29;99507.63;4370198;32;33608;-75
2023/10/14 00:04:53;;;;;;;13.95;7.35;;;;;;;19.54;55.45;99504.94;4367804;32;33897;-75
2023/10/14 00:07:24;;;;;;;7.75;5.07;;;;;;;19.49;55.42;99499.22;4362703;32;33970;-74
2023/10/14 00:09:57;;;;;;;13.80;5.75;;;;;;;19.52;55.01;99501.59;4365003;32;34063;-75
2023/10/14 00:12:28;;;;;;;27.45;7.05;;;;;;;19.48;55.03;99498.34;4362633;32;34177;-75
2023/10/14 00:15:03;;;;;;;11.30;6.75;;;;;;;19.43;55.02;99495.34;4368351;32;33791;-75
2023/10/14 00:17:35;;;;;;;12.88;7.53;;;;;;;19.30;55.57;99486.94;4372077;32;35047;-75
2023/10/14 00:20:04;;;;;;;16.17;8.00;;;;;;;19.26;55.62;99489.16;4356651;32;32001;-75
2023/10/14 00:22:32;;;;;;;13.23;6.03;;;;;;;19.28;55.54;99488.97;4375208;32;33890;-74
2023/10/14 00:25:00;;;;;;;15.85;7.80;;;;;;;19.23;55.43;99491.37;4364498;32;33761;-75
2023/10/14 00:27:28;;;;;;;10.63;5.55;;;;;;;19.21;55.59;99486.12;4371612;32;33585;-75
2023/10/14 00:30:09;;;;;;;15.73;7.18;;;;;;;19.09;56.11;99488.38;4374191;32;34754;-75
2023/10/14 00:32:38;;;;;;;15.65;7.20;;;;;;;19.12;56.05;99478.19;4370744;32;33960;-74
2023/10/14 00:35:09;;;;;;;17.15;6.47;;;;;;;19.07;56.07;99485.00;4367470;32;34802;-74
2023/10/14 00:37:37;;;;;;;12.35;6.05;;;;;;;19.08;55.91;99483.13;4368042;32;33782;-74
2023/10/14 00:40:21;;;;;;;8.50;5.60;;;;;;;19.05;55.73;99481.63;4366782;32;33579;-73
2023/10/14 00:42:51;;;;;;;15.43;5.45;;;;;;;19.07;55.39;99478.75;4372859;32;34707;-73
2023/10/14 00:45:20;;;;;;;17.52;5.37;;;;;;;19.05;55.27;99476.19;4367052;32;33859;-74
2023/10/14 00:47:49;;;;;;;12.50;6.25;;;;;;;19.04;55.03;99470.97;4367351;32;35237;-74
2023/10/14 00:52:54;;;;;;;8.93;4.90;;;;;;;18.93;55.98;99465.91;4365591;32;34048;-74
2023/10/14 00:55:35;;;;;;;24.20;6.62;;;;;;;18.93;56.39;99460.47;4362045;32;35407;-74
2023/10/14 00:58:02;;;;;;;22.37;13.32;;;;;;;18.99;56.27;99457.06;4367167;32;34715;-74
2023/10/14 01:03:17;;;;;;;15.73;6.90;;;;;;;18.97;55.78;99453.66;4371411;32;33409;-74
2023/10/14 01:05:45;;;;;;;12.00;7.53;;;;;;;18.92;55.25;99437.94;4374060;32;34427;-73
2023/10/14 01:08:13;;;;;;;10.88;6.53;;;;;;;18.94;55.20;99437.75;4361630;32;34802;-74
2023/10/14 01:10:42;;;;;;;10.32;4.47;;;;;;;18.88;55.13;99433.06;4373074;32;34496;-73
2023/10/14 01:13:31;;;;;;;11.30;5.05;;;;;;;18.88;55.47;99425.75;4372346;32;33769;-73
2023/10/14 01:16:07;;;;;;;11.88;6.18;;;;;;;18.80;55.93;99418.50;4368234;32;34142;-73
2023/10/14 01:18:38;;;;;;;20.33;5.22;;;;;;;18.82;56.24;99415.63;4375797;32;33615;-72
2023/10/14 01:21:07;;;;;;;11.60;5.93;;;;;;;18.82;56.42;99416.47;4359686;32;33106;-73
2023/10/14 01:23:38;;;;;;;13.62;6.18;;;;;;;18.81;56.10;99411.19;4370959;32;33723;-73
2023/10/14 01:26:10;;;;;;;14.87;7.43;;;;;;;18.76;56.10;99408.19;4372997;32;34218;-73
2023/10/14 01:28:44;;;;;;;15.65;6.28;;;;;;;18.90;55.57;99403.88;4372574;32;34403;-73
2023/10/14 01:31:40;;;;;;;17.45;7.28;;;;;;;18.58;56.62;99398.37;4374684;32;33912;-73
2023/10/14 01:34:10;;;;;;;11.35;5.72;;;;;;;18.75;55.76;99391.06;4356663;32;34024;-73
2023/10/14 01:36:38;;;;;;;19.23;7.47;;;;;;;18.87;55.36;99393.38;4377801;32;35211;-73
2023/10/14 01:39:10;;;;;;;19.58;12.45;;;;;;;18.77;55.39;99396.31;4377968;32;33549;-74
2023/10/14 01:41:38;;;;;;;13.70;5.65;;;;;;;18.74;55.55;99396.66;4366932;32;33355;-73
2023/10/14 01:44:05;;;;;;;9.45;5.47;;;;;;;18.62;55.96;99396.19;4371433;32;34897;-74
2023/10/14 01:46:34;;;;;;;15.30;5.97;;;;;;;18.74;55.81;99389.38;4375207;32;33831;-73
2023/10/14 01:49:10;;;;;;;20.55;7.18;;;;;;;18.78;56.09;99388.00;4375703;32;33733;-73
2023/10/14 01:51:38;;;;;;;13.00;6.43;;;;;;;18.84;56.77;99379.19;4379183;32;33269;-74
2023/10/14 01:54:09;;;;;;;11.55;7.07;;;;;;;18.94;57.34;99376.25;4363778;32;33873;-73
2023/10/14 01:56:37;;;;;;;22.50;12.80;;;;;;;18.99;57.74;99370.28;4357836;32;34145;-72
2023/10/14 01:59:05;;;;;;;13.75;7.32;;;;;;;18.92;58.05;99367.44;4371358;32;34078;-72
2023/10/14 02:01:36;;;;;;;10.90;5.78;;;;;;;19.02;57.96;99373.47;4363186;32;33346;-72
2023/10/14 02:04:04;;;;;;;13.62;7.78;;;;;;;19.06;57.60;99355.81;4375792;32;33860;-73
2023/10/14 02:06:32;;;;;;;15.93;8.15;;;;;;;19.07;57.49;99357.53;4370471;32;35839;-72
2023/10/14 02:09:00;;;;;;;20.25;8.98;;;;;;;19.09;57.41;99360.03;4367932;32;34963;-73
2023/10/14 02:11:35;;;;;;;12.95;6.80;;;;;;;19.00;57.93;99363.81;4361314;32;34350;-72
2023/10/14 02:14:07;;;;;;;16.17;7.20;;;;;;;18.82;58.36;99358.69;4361802;32;35112;-72
2023/10/14 02:16:43;;;;;;;11.73;5.60;;;;;;;18.73;58.10;99357.03;4364449;32;34855;-72
2023/10/14 02:19:20;;;;;;;21.58;6.50;;;;;;;18.77;57.78;99352.94;4335190;32;34653;-72
2023/10/14 02:22:02;;;;;;;16.75;6.60;;;;;;;18.58;58.18;99341.47;4337118;32;32215;-71
2023/10/14 02:24:30;;;;;;;12.77;6.32;;;;;;;18.68;57.98;99343.94;4343717;32;34694;-72
2023/10/14 02:27:04;;;;;;;17.00;10.23;;;;;;;18.49;59.10;99337.13;4339844;32;33724;-72
2023/10/14 02:29:32;;;;;;;24.23;8.30;;;;;;;18.48;59.53;99339.97;4340412;33;33670;-72
2023/10/14 02:32:00;;;;;;;25.98;6.57;;;;;;;18.47;59.71;99332.88;4341222;32;32908;-72
2023/10/14 02:34:28;;;;;;;10.23;5.95;;;;;;;18.49;59.81;99328.13;4340565;33;33847;-72
2023/10/14 02:37:01;;;;;;;17.98;5.82;;;;;;;18.65;59.34;99340.75;4343619;32;35187;-73
2023/10/14 02:39:29;;;;;;;10.98;5.45;;;;;;;18.73;59.06;99338.87;4343558;32;33632;-73
2023/10/14 02:42:00;;;;;;;11.40;6.60;;;;;;;18.81;58.62;99344.28;4342867;32;33313;-73
2023/10/14 02:44:32;;;;;;;11.75;6.30;;;;;;;18.92;58.16;99340.31;4342774;32;34897;-73
2023/10/14 02:47:04;;;;;;;15.70;5.57;;;;;;;18.96;58.05;99338.09;4344081;33;33771;-73
2023/10/14 02:49:42;;;;;;;9.57;6.18;;;;;;;19.00;57.67;99336.69;4345237;32;35045;-74
2023/10/14 02:52:11;;;;;;;10.38;5.82;;;;;;;19.02;57.52;99335.50;4365491;32;33703;-74
2023/10/14 02:54:45;;;;;;;13.10;7.20;;;;;;;18.98;57.66;99336.06;4372144;32;33766;-73
2023/10/14 02:57:14;;;;;;;16.87;7.82;;;;;;;18.97;58.14;99327.09;4374383;32;33929;-73
2023/10/14 03:05:08;;;;;;;12.80;7.35;;;;;;;19.00;58.01;99328.56;4364727;32;34186;-73
2023/10/14 03:07:50;;;;;;;12.98;5.65;;;;;;;18.97;57.81;99331.63;4358232;32;35441;-72
2023/10/14 03:12:49;;;;;;;13.90;6.20;;;;;;;18.91;56.17;99335.06;4373265;32;33401;-72
2023/10/14 03:15:22;;;;;;;14.55;6.40;;;;;;;18.84;55.76;99333.09;4374536;32;33513;-75
2023/10/14 03:18:01;;;;;;;20.00;10.50;;;;;;;18.79;55.48;99335.47;4369845;32;34178;-75
2023/10/14 03:25:41;;;;;;;9.43;5.85;;;;;;;18.46;55.85;99326.62;4328081;33;33504;-75
2023/10/14 03:28:13;;;;;;;10.05;6.45;;;;;;;18.44;55.71;99319.69;4309727;33;35245;-74
2023/10/14 03:30:45;;;;;;;12.93;6.25;;;;;;;18.40;55.67;99319.19;4328087;33;34677;-70
2023/10/14 03:33:19;;;;;;;7.57;4.20;;;;;;;18.31;56.63;99325.66;4325208;33;33329;-71
2023/10/14 03:36:00;;;;;;;12.75;5.10;;;;;;;18.30;56.58;99305.84;4315817;33;33631;-71
2023/10/14 03:46:41;;;;;;;10.75;5.47;;;;;;;18.49;56.97;99307.31;4319571;33;34509;-72
2023/10/14 03:49:20;;;;;;;12.50;4.95;;;;;;;18.53;56.67;99308.63;4327648;33;34215;-72
2023/10/14 03:51:56;;;;;;;17.40;7.72;;;;;;;18.38;57.53;99302.25;4329358;33;34598;-72
2023/10/14 03:54:28;;;;;;;11.00;5.85;;;;;;;18.52;56.52;99301.53;4307783;33;34552;-72
2023/10/14 03:57:03;;;;;;;14.73;6.37;;;;;;;18.56;55.51;99297.44;4346332;32;34601;-72
2023/10/14 03:59:33;;;;;;;12.05;6.53;;;;;;;18.48;55.29;99300.19;4365201;32;34186;-72
2023/10/14 04:02:05;;;;;;;7.60;5.12;;;;;;;18.50;55.45;99291.87;4370843;32;32430;-72
2023/10/14 04:04:33;;;;;;;11.57;6.85;;;;;;;18.46;55.30;99287.81;4373676;32;33057;-72
2023/10/14 04:12:28;;;;;;;12.88;6.72;;;;;;;18.51;56.26;99288.97;4363288;32;33571;-70
2023/10/14 04:15:04;;;;;;;16.67;8.63;;;;;;;18.54;56.81;99279.66;4368373;32;33198;-72
2023/10/14 04:17:32;;;;;;;21.33;14.50;;;;;;;18.62;57.58;99290.47;4371310;32;33692;-71
2023/10/14 04:25:19;;;;;;;10.50;6.20;;;;;;;18.66;57.99;99283.66;4375216;32;33568;-72
2023/10/14 04:35:36;;;;;;;14.05;6.15;;;;;;;18.70;55.65;99292.28;4325742;33;33288;-72
2023/10/14 04:38:15;;;;;;;9.07;5.12;;;;;;;18.66;54.32;99297.22;4324038;33;33678;-73
2023/10/14 04:40:53;;;;;;;7.93;4.72;;;;;;;18.61;53.62;99291.47;4318856;33;34994;-72
2023/10/14 04:45:55;;;;;;;12.77;6.05;;;;;;;18.36;53.66;99291.63;4323059;33;34431;-73
2023/10/14 04:48:35;;;;;;;15.30;5.85;;;;;;;18.34;53.74;99288.22;4316890;33;33737;-73
2023/10/14 04:51:15;;;;;;;13.38;5.75;;;;;;;18.27;54.13;99286.41;4337077;33;34068;-73
2023/10/14 04:53:44;;;;;;;8.85;5.47;;;;;;;18.17;54.56;99281.19;4317453;33;34025;-72
2023/10/14 04:56:20;;;;;;;12.23;4.15;;;;;;;18.07;54.72;99283.22;4318586;33;34264;-72
2023/10/14 04:58:52;;;;;;;15.18;6.90;;;;;;;18.06;54.45;99270.72;4346621;32;33372;-72
2023/10/14 05:01:24;;;;;;;8.80;4.53;;;;;;;17.80;54.94;99270.97;4366115;32;34018;-72
2023/10/14 05:03:57;;;;;;;16.12;7.70;;;;;;;17.88;54.48;99268.22;4366274;32;33827;-73
2023/10/14 05:06:39;;;;;;;9.80;4.82;;;;;;;17.84;54.57;99259.59;4374753;32;34175;-72
2023/10/14 05:09:25;;;;;;;6.62;3.70;;;;;;;17.78;54.79;99264.88;4367930;32;33996;-72
2023/10/14 05:11:56;;;;;;;10.32;4.87;;;;;;;17.74;54.57;99266.19;4365687;32;33838;-72
2023/10/14 05:14:37;;;;;;;9.25;4.28;;;;;;;17.60;54.89;99267.75;4376326;32;34625;-72
2023/10/14 05:17:16;;;;;;;19.65;12.43;;;;;;;17.46;55.37;99272.84;4367229;32;33426;-72
2023/10/14 05:19:47;;;;;;;4.68;2.95;;;;;;;17.14;56.19;99264.72;4370753;32;33641;-72
2023/10/14 05:24:52;;;;;;;20.52;13.05;;;;;;;17.02;56.88;99266.94;4373748;32;33887;-72
2023/10/14 05:27:21;;;;;;;9.45;6.57;;;;;;;17.03;57.14;99268.59;4375869;32;34566;-71
2023/10/14 05:29:52;;;;;;;17.42;11.60;;;;;;;16.91;57.88;99267.25;4373252;32;33991;-72
2023/10/14 05:32:30;;;;;;;10.40;7.30;;;;;;;16.83;58.41;99264.53;4371762;32;33727;-72
2023/10/14 05:34:59;;;;;;;16.67;7.72;;;;;;;17.02;57.86;99269.63;4369136;32;33588;-72
2023/10/14 05:37:26;;;;;;;14.13;5.45;;;;;;;17.07;57.99;99261.00;4367402;32;33221;-73
2023/10/14 05:39:54;;;;;;;11.95;5.75;;;;;;;16.90;58.90;99254.75;4370297;32;33513;-71
2023/10/14 05:42:24;;;;;;;11.35;6.10;;;;;;;17.04;58.85;99259.47;4379488;32;35565;-73
2023/10/14 05:45:01;;;;;;;17.02;6.82;;;;;;;17.07;59.43;99255.59;4367607;32;33646;-73
2023/10/14 05:47:32;;;;;;;19.62;6.00;;;;;;;17.09;58.98;99259.81;4367409;32;34787;-73
2023/10/14 05:49:59;;;;;;;11.90;5.93;;;;;;;17.29;58.62;99262.19;4368867;32;34566;-73
2023/10/14 05:52:28;;;;;;;12.15;5.93;;;;;;;17.39;58.46;99270.97;4372888;32;33818;-72
2023/10/14 05:54:55;;;;;;;9.63;6.40;;;;;;;17.48;58.27;99267.25;4371110;32;32350;-72
2023/10/14 05:57:23;;;;;;;9.80;4.90;;;;;;;17.59;58.20;99272.34;4374219;32;34273;-72
2023/10/14 05:59:51;;;;;;;9.77;5.43;;;;;;;17.69;58.19;99273.00;4366806;32;33877;-72
2023/10/14 06:02:19;;;;;;;11.23;5.57;;;;;;;17.70;58.76;99274.66;4363988;32;35013;-72
2023/10/14 06:04:50;;;;;;;15.95;8.10;;;;;;;17.84;58.59;99275.84;4357640;32;33736;-72
2023/10/14 06:07:18;;;;;;;23.00;14.98;;;;;;;17.91;58.73;99274.16;4370627;32;33495;-72
2023/10/14 06:09:46;;;;;;;10.63;7.32;;;;;;;17.95;58.83;99269.25;4366982;32;33952;-72
2023/10/14 06:12:14;;;;;;;15.43;7.32;;;;;;;18.05;58.85;99267.16;4359756;32;34529;-72
2023/10/14 06:14:42;;;;;;;14.77;8.82;;;;;;;18.12;58.99;99265.44;4371961;32;34919;-72
2023/10/14 06:17:11;;;;;;;10.25;5.87;;;;;;;18.25;59.09;99264.88;4372926;32;33590;-72
2023/10/14 06:19:40;;;;;;;14.80;8.93;;;;;;;18.40;59.01;99275.84;4370753;32;33673;-72
2023/10/14 06:22:13;;;;;;;15.07;9.40;;;;;;;18.50;59.20;99268.34;4365796;32;34995;-72
2023/10/14 06:24:42;;;;;;;16.10;7.32;;;;;;;18.61;59.69;99269.78;4364639;32;33746;-71
2023/10/14 06:27:20;;;;;;;14.43;5.90;;;;;;;18.71;59.90;99269.56;4362146;32;34020;-71
2023/10/14 06:29:50;;;;;;;21.17;8.38;;;;;;;18.85;59.99;99269.69;4367288;32;34638;-72
2023/10/14 06:32:18;;;;;;;18.05;9.70;;;;;;;18.99;59.80;99262.63;4362294;32;35883;-72
2023/10/14 06:34:57;;;;;;;13.85;8.70;;;;;;;19.07;59.70;99262.59;4363616;32;34437;-72
2023/10/14 06:37:26;;;;;;;19.12;9.20;;;;;;;18.84;60.28;99272.56;4370135;32;33252;-71
2023/10/14 06:39:56;;;;;;;15.98;8.05;;;;;;;19.03;59.58;99280.22;4368499;32;33792;-72
2023/10/14 06:42:26;;;;;;;12.77;6.87;;;;;;;19.23;58.98;99272.47;4378509;32;35200;-72
2023/10/14 06:44:55;;;;;;;16.98;8.55;;;;;;;19.13;59.10;99269.13;4366554;32;34055;-72
2023/10/14 06:47:23;;;;;;;17.52;8.02;;;;;;;19.28;58.87;99275.47;4370728;32;34547;-72
2023/10/14 06:49:51;;;;;;;16.40;8.68;;;;;;;19.36;58.86;99266.44;4373029;32;34757;-72
2023/10/14 06:52:19;;;;;;;15.18;7.40;;;;;;;19.45;59.08;99272.62;4389173;32;34785;-72
2023/10/14 06:54:47;;;;;;;13.52;7.75;;;;;;;19.42;59.03;99273.84;4374152;32;34026;-73
2023/10/14 06:57:16;;;;;;;17.70;9.10;;;;;;;19.60;58.52;99268.06;4364577;32;33191;-71
2023/10/14 06:59:45;;;;;;;15.98;10.02;;;;;;;19.75;58.35;99271.69;4365966;32;32463;-71
2023/10/14 07:02:13;;;;;;;18.90;9.07;;;;;;;19.72;58.57;99268.50;4362558;32;34080;-72
2023/10/14 07:04:41;;;;;;;15.68;8.63;;;;;;;19.52;58.96;99268.16;4370057;32;32489;-72
2023/10/14 07:07:09;;;;;;;20.95;10.27;;;;;;;19.62;59.09;99267.91;4365239;32;33028;-72
2023/10/14 07:09:44;;;;;;;22.08;10.20;;;;;;;19.72;58.79;99255.75;4369501;32;34070;-72
2023/10/14 07:12:15;;;;;;;26.15;10.35;;;;;;;19.66;59.50;99253.78;4365539;32;34207;-72
2023/10/14 07:14:46;;;;;;;23.00;7.97;;;;;;;19.84;59.10;99249.88;4370782;32;34175;-72
2023/10/14 07:17:22;;;;;;;17.23;8.70;;;;;;;19.89;59.15;99248.28;4363683;32;31611;-72
2023/10/14 07:19:50;;;;;;;20.48;9.30;;;;;;;20.04;58.96;99245.56;4365953;32;33644;-72
2023/10/14 07:22:20;;;;;;;18.15;8.90;;;;;;;20.31;58.56;99243.22;4369102;32;34804;-71
2023/10/14 07:24:50;;;;;;;19.12;10.00;;;;;;;20.61;58.12;99244.00;4367914;32;34830;-71
2023/10/14 07:27:20;;;;;;;23.62;10.73;;;;;;;20.64;58.19;99227.31;4366734;32;34527;-71
2023/10/14 07:29:48;;;;;;;16.85;8.70;;;;;;;20.47;58.86;99234.84;4372834;32;34698;-71
2023/10/14 07:32:19;;;;;;;17.98;11.60;;;;;;;20.81;58.20;99231.50;4370695;32;33873;-72
2023/10/14 07:34:50;;;;;;;19.95;11.00;;;;;;;21.65;55.57;99236.25;4364448;32;34576;-71
2023/10/14 07:37:20;;;;;;;21.48;10.60;;;;;;;21.84;53.56;99234.69;4370716;32;33333;-71
2023/10/14 07:39:52;;;;;;;17.83;10.05;;;;;;;21.73;54.64;99235.22;4368094;32;34664;-71
2023/10/14 07:42:21;;;;;;;17.85;10.32;;;;;;;21.34;55.44;99237.41;4370704;32;33915;-74
2023/10/14 07:44:52;;;;;;;22.55;11.02;;;;;;;21.62;55.45;99229.31;4375402;32;33905;-74
2023/10/14 07:47:21;;;;;;;22.83;13.00;;;;;;;21.60;54.89;99222.38;4374712;32;33117;-73
2023/10/14 07:49:50;;;;;;;28.08;12.43;;;;;;;21.14;56.00;99225.53;4376055;32;34815;-72
2023/10/14 07:52:20;;;;;;;23.50;11.23;;;;;;;21.33;55.06;99227.56;4375248;32;35120;-73
2023/10/14 07:54:51;;;;;;;21.20;11.57;;;;;;;21.47;54.76;99233.16;4373144;32;34938;-74
2023/10/14 07:57:19;;;;;;;26.83;12.82;;;;;;;21.27;54.93;99233.81;4371818;32;34569;-73
2023/10/14 07:59:50;;;;;;;27.30;13.65;;;;;;;21.54;54.42;99234.91;4375824;32;34613;-72
2023/10/14 08:02:18;;;;;;;21.17;12.07;;;;;;;21.76;54.21;99232.09;4366973;32;34096;-73
2023/10/14 08:04:46;;;;;;;22.83;11.40;;;;;;;21.11;55.58;99229.47;4373674;32;33950;-71
2023/10/14 08:07:14;;;;;;;23.40;12.70;;;;;;;21.31;55.49;99226.09;4367569;32;34386;-72
2023/10/14 08:09:43;;;;;;;20.33;12.02;;;;;;;21.40;54.98;99224.94;4373725;32;32383;-73
2023/10/14 08:12:13;;;;;;;20.75;11.07;;;;;;;21.47;54.63;99219.56;4373280;32;33828;-71
2023/10/14 08:14:41;;;;;;;19.83;12.30;;;;;;;21.86;53.69;99214.38;4373795;32;34914;-71
2023/10/14 08:17:11;;;;;;;22.23;12.25;;;;;;;21.22;55.96;99219.09;4365606;32;33407;-73
2023/10/14 08:19:40;;;;;;;21.70;11.77;;;;;;;21.06;56.56;99217.47;4365737;32;34961;-72
2023/10/14 08:22:14;;;;;;;18.10;11.20;;;;;;;21.51;55.08;99218.09;4367880;32;34990;-72
2023/10/14 08:24:42;;;;;;;23.02;12.85;;;;;;;21.39;55.62;99220.53;4341854;32;33724;-72
2023/10/14 08:27:12;;;;;;;21.70;12.70;;;;;;;20.75;56.72;99223.25;4346251;32;33619;-72
2023/10/14 08:29:41;;;;;;;17.67;10.65;;;;;;;20.68;57.96;99220.47;4356108;32;34829;-73
2023/10/14 08:32:09;;;;;;;19.98;11.40;;;;;;;21.11;56.47;99226.75;4342037;32;33998;-73
2023/10/14 08:34:37;;;;;;;19.92;10.10;;;;;;;21.24;56.73;99227.91;4349932;32;34345;-72
2023/10/14 08:37:05;;;;;;;23.10;12.02;;;;;;;20.95;57.64;99218.84;4352555;32;33375;-73
2023/10/14 08:39:33;;;;;;;23.92;14.52;;;;;;;20.88;58.28;99207.06;4355434;32;33601;-73
2023/10/14 08:42:04;;;;;;;26.10;11.52;;;;;;;20.75;58.08;99207.78;4345993;32;33909;-73
2023/10/14 08:44:33;;;;;;;19.60;12.75;;;;;;;21.03;57.79;99207.03;4345461;32;34859;-72
2023/10/14 08:47:01;;;;;;;19.85;9.98;;;;;;;21.44;56.11;99207.16;4339056;32;34189;-72
2023/10/14 08:49:33;;;;;;;22.45;10.35;;;;;;;21.44;56.10;99198.16;4355788;32;33886;-72
2023/10/14 08:52:04;;;;;;;23.02;12.45;;;;;;;21.96;55.06;99194.94;4333781;32;33901;-73
2023/10/14 08:54:32;;;;;;;17.98;11.32;;;;;;;21.55;55.15;99190.31;4339588;32;34901;-73
2023/10/14 08:57:00;;;;;;;25.62;10.70;;;;;;;21.86;54.14;99197.19;4341407;33;34440;-73
2023/10/14 08:59:27;;;;;;;21.37;11.75;;;;;;;22.02;53.67;99205.06;4334950;32;34468;-73
2023/10/14 09:01:56;;;;;;;17.42;9.68;;;;;;;22.09;53.53;99196.91;4340303;33;33618;-72
2023/10/14 09:04:28;;;;;;;23.05;11.82;;;;;;;21.95;53.72;99206.03;4344419;32;33551;-71
2023/10/14 09:07:03;;;;;;;18.37;11.48;;;;;;;22.19;52.89;99210.19;4355074;32;32945;-70
2023/10/14 09:09:32;;;;;;;21.42;10.80;;;;;;;22.31;52.50;99201.22;4356131;32;33851;-70
2023/10/14 09:12:11;;;;;;;22.62;11.48;;;;;;;21.65;53.92;99195.38;4349002;32;34149;-70
2023/10/14 09:14:41;;;;;;;17.23;10.18;;;;;;;21.67;54.14;99211.50;4352084;32;34771;-70
2023/10/14 09:17:09;;;;;;;16.62;10.10;;;;;;;21.69;54.12;99198.56;4352550;32;33040;-70
2023/10/14 09:19:48;;;;;;;22.52;13.15;;;;;;;22.09;53.21;99202.34;4351824;32;33486;-71
2023/10/14 09:22:22;;;;;;;22.13;13.00;;;;;;;22.00;53.48;99196.22;4345915;32;35443;-70
2023/10/14 09:24:51;;;;;;;18.00;10.52;;;;;;;22.19;52.98;99191.09;4363315;32;33765;-70
2023/10/14 09:27:20;;;;;;;20.73;9.85;;;;;;;22.08;53.42;99187.03;4363647;32;33294;-68
2023/10/14 09:29:48;;;;;;;23.30;13.48;;;;;;;22.52;52.24;99185.75;4368277;32;32049;-69
2023/10/14 09:32:17;;;;;;;20.02;11.30;;;;;;;21.98;53.30;99195.56;4371813;32;34198;-69
2023/10/14 09:34:45;;;;;;;21.17;10.15;;;;;;;22.24;52.79;99183.16;4365028;32;33714;-69
2023/10/14 09:37:17;;;;;;;19.08;10.98;;;;;;;22.82;51.54;99175.31;4362312;32;33271;-71
2023/10/14 09:39:49;;;;;;;18.55;9.88;;;;;;;23.06;50.95;99178.56;4370412;32;34727;-71
2023/10/14 09:42:18;;;;;;;22.40;11.70;;;;;;;22.60;51.65;99188.31;4369048;32;35208;-70
2023/10/14 09:44:47;;;;;;;20.52;11.82;;;;;;;22.77;51.57;99180.59;4368356;32;33455;-71
2023/10/14 09:47:19;;;;;;;23.08;13.27;;;;;;;23.46;49.99;99182.09;4371919;32;34842;-72
2023/10/14 09:49:48;;;;;;;18.55;12.02;;;;;;;23.56;49.80;99179.75;4373563;32;33956;-72
2023/10/14 09:52:17;;;;;;;21.35;10.20;;;;;;;23.76;49.16;99176.22;4370780;32;34253;-71
2023/10/14 09:54:49;;;;;;;19.75;12.00;;;;;;;24.07;48.36;99167.25;4357868;32;33655;-71
2023/10/14 09:57:18;;;;;;;19.65;9.40;;;;;;;23.76;49.54;99151.62;4369211;32;34200;-71
2023/10/14 09:59:47;;;;;;;17.58;9.38;;;;;;;24.02;48.55;99159.72;4360797;32;33722;-71
2023/10/14 10:02:16;;;;;;;19.52;11.50;;;;;;;24.23;48.55;99161.31;4363507;32;33831;-71
2023/10/14 10:04:47;;;;;;;18.85;11.12;;;;;;;24.02;47.97;99156.16;4373687;32;33663;-73
2023/10/14 10:08:08;;;;;;;23.23;12.80;;;;;;;24.51;47.12;99154.69;4362378;32;34507;-71
2023/10/14 10:10:36;;;;;;;19.62;12.15;;;;;;;24.65;46.75;99159.00;4321531;33;34697;-72
2023/10/14 10:13:04;;;;;;;18.80;10.57;;;;;;;24.56;46.81;99146.66;4322629;33;33885;-71
2023/10/14 10:15:35;;;;;;;17.40;9.20;;;;;;;24.61;47.40;99144.09;4318687;33;34760;-71
2023/10/14 10:18:12;;;;;;;21.33;12.40;;;;;;;24.18;47.59;99131.06;4324550;33;34369;-71
2023/10/14 10:20:52;;;;;;;15.98;8.23;;;;;;;23.90;47.84;99134.94;4321287;33;34955;-71
2023/10/14 10:23:23;;;;;;;21.08;12.88;;;;;;;23.75;48.55;99120.69;4324664;33;35056;-72
2023/10/14 10:25:51;;;;;;;17.10;9.73;;;;;;;24.17;47.25;99123.91;4322642;33;34800;-71
2023/10/14 10:28:28;;;;;;;18.35;10.70;;;;;;;23.90;47.74;99118.56;4305486;33;33156;-72
2023/10/14 10:31:04;;;;;;;19.17;10.32;;;;;;;24.61;45.60;99108.53;4305058;33;33506;-71
2023/10/14 10:34:02;;;;;;;20.65;11.48;;;;;;;24.84;45.75;99100.56;4311868;33;35170;-71
2023/10/14 10:36:31;;;;;;;26.67;17.02;;;;;;;24.62;45.63;99096.50;4279462;33;33911;-71
2023/10/14 10:39:15;;;;;;;19.95;11.57;;;;;;;24.59;46.71;99096.97;4282209;33;34134;-72
2023/10/14 10:41:49;;;;;;;26.98;11.95;;;;;;;24.60;46.09;99094.00;4293722;33;32352;-71
2023/10/14 10:44:18;;;;;;;19.08;10.80;;;;;;;24.78;45.44;99104.22;4281850;33;34831;-72
2023/10/14 10:46:48;;;;;;;20.48;8.40;;;;;;;24.49;45.50;99104.81;4313813;33;33837;-71
2023/10/14 10:49:48;;;;;;;15.23;8.70;;;;;;;25.05;45.03;99110.28;4325867;33;33517;-73
2023/10/14 10:52:16;;;;;;;18.05;12.05;;;;;;;24.90;45.35;99106.22;4325964;33;34622;-71
2023/10/14 10:54:45;;;;;;;15.27;9.55;;;;;;;24.40;45.88;99107.81;4322857;33;33616;-70
2023/10/14 10:57:13;;;;;;;14.52;8.20;;;;;;;24.85;44.91;99096.78;4326419;33;34626;-71
2023/10/14 10:59:41;;;;;;;14.90;6.72;;;;;;;24.76;44.96;99095.38;4343164;32;33658;-71
2023/10/14 11:02:10;;;;;;;20.20;11.07;;;;;;;24.84;44.95;99094.25;4350739;32;33039;-71
2023/10/14 11:04:41;;;;;;;16.42;8.05;;;;;;;24.98;44.01;99097.72;4354782;32;33962;-71
2023/10/14 11:07:14;;;;;;;15.98;9.40;;;;;;;24.94;44.44;99088.28;4355433;32;33925;-73
2023/10/14 11:09:41;;;;;;;16.67;9.00;;;;;;;24.81;43.74;99091.97;4337931;32;33332;-71
2023/10/14 11:12:11;;;;;;;17.17;10.00;;;;;;;24.33;45.13;99081.53;4348277;32;33695;-72
2023/10/14 11:14:39;;;;;;;18.62;11.38;;;;;;;24.10;45.19;99087.56;4359242;32;33047;-72
2023/10/14 11:17:07;;;;;;;16.80;9.27;;;;;;;24.42;45.03;99080.25;4365101;32;33664;-72
2023/10/14 11:19:35;;;;;;;14.32;9.98;;;;;;;24.46;44.05;99083.38;4370783;32;33273;-72
2023/10/14 11:22:03;;;;;;;19.87;8.23;;;;;;;24.08;45.45;99081.50;4372130;32;34909;-71
2023/10/14 11:24:31;;;;;;;18.58;10.98;;;;;;;24.46;45.39;99078.75;4368985;32;34089;-72
2023/10/14 11:27:01;;;;;;;18.92;9.13;;;;;;;24.69;44.23;99083.66;4366786;32;32210;-72
2023/10/14 11:29:33;;;;;;;19.85;13.40;;;;;;;24.54;43.94;99072.19;4365400;32;34341;-73
2023/10/14 11:32:02;;;;;;;19.17;10.40;;;;;;;24.50;44.61;99081.91;4367937;32;33777;-71
2023/10/14 11:34:36;;;;;;;17.20;10.50;;;;;;;25.21;43.88;99069.75;4367678;32;34310;-71
2023/10/14 11:37:10;;;;;;;19.50;11.15;;;;;;;24.85;43.62;99072.16;4363864;32;34096;-71
2023/10/14 11:39:38;;;;;;;15.35;9.77;;;;;;;24.32;43.96;99074.41;4372287;32;33378;-71
2023/10/14 11:42:06;;;;;;;21.08;12.65;;;;;;;24.54;43.70;99063.97;4376056;32;35510;-71
2023/10/14 11:44:36;;;;;;;18.60;9.30;;;;;;;24.56;43.45;99061.88;4370105;32;33720;-71
2023/10/14 11:47:07;;;;;;;17.20;8.73;;;;;;;24.45;43.60;99063.41;4373903;32;35199;-70
2023/10/14 11:49:36;;;;;;;17.55;9.15;;;;;;;24.85;43.23;99055.72;4369994;32;33101;-72
2023/10/14 11:52:04;;;;;;;19.70;12.32;;;;;;;25.05;42.10;99057.44;4370014;32;33925;-71
2023/10/14 11:54:32;;;;;;;16.00;10.43;;;;;;;25.33;41.94;99048.78;4373173;32;33819;-71
2023/10/14 11:57:00;;;;;;;21.40;11.38;;;;;;;25.47;42.43;99049.44;4371707;32;33876;-71
2023/10/14 11:59:27;;;;;;;19.65;10.48;;;;;;;25.24;42.88;99050.97;4374415;32;33022;-72
2023/10/14 12:01:58;;;;;;;17.25;9.88;;;;;;;25.28;42.71;99049.44;4360978;32;33761;-72
2023/10/14 12:04:28;;;;;;;21.08;9.23;;;;;;;25.15;43.16;99046.84;4353038;32;34269;-72
2023/10/14 12:06:56;;;;;;;17.60;10.32;;;;;;;24.96;43.03;99042.34;4364441;32;34882;-72
2023/10/14 12:09:23;;;;;;;14.38;9.90;;;;;;;25.08;42.50;99043.31;4367204;32;33802;-72
2023/10/14 12:11:52;;;;;;;15.90;8.27;;;;;;;25.14;42.16;99039.69;4365220;32;33858;-72
2023/10/14 12:14:20;;;;;;;14.38;10.35;;;;;;;25.59;42.18;99047.63;4361134;32;34151;-72
2023/10/14 12:16:47;;;;;;;16.80;10.25;;;;;;;25.23;42.67;99045.69;4363116;32;33798;-72
2023/10/14 12:19:19;;;;;;;16.02;9.25;;;;;;;25.57;42.53;99038.78;4360755;32;31639;-72
2023/10/14 12:21:48;;;;;;;14.07;7.25;;;;;;;26.01;41.47;99028.56;4366538;32;33838;-72
2023/10/14 12:24:15;;;;;;;15.50;7.57;;;;;;;26.21;41.06;99028.25;4370096;32;33865;-73
2023/10/14 12:26:46;;;;;;;18.80;7.85;;;;;;;26.32;40.49;99026.63;4363070;32;34472;-72
2023/10/14 12:29:14;;;;;;;15.45;9.10;;;;;;;25.91;41.91;99033.78;4370092;32;33191;-72
2023/10/14 12:31:45;;;;;;;13.62;6.78;;;;;;;25.95;41.74;99033.06;4369330;32;34800;-73